• images/banner/banner1.jpg
  • images/banner/banner2.jpg

Team Member Login

Aviation Weather

[source: ADDS]
METAR
EGVN 171150Z 24009KT 9999 BKN042 BKN250 19/07 Q1020 NOSIG =
TAF
TAF EGVN 171053Z 1712/1812 25010KT 9999 SCT040 BECMG 1717/1720 BKN018 TEMPO 1720/1801 SCT012 BECMG 1801/1804 BKN007 BECMG 1809/1812 SCT022 =